Aktuální počasí v Česku a ve světě - METAR

Seznam meteostanic umístěných nejčasteji na letišti v ČR a ve světě

Vyhledat místa podle abecedy:
A B C D E F G H I J K L M N O P Q R S T U V W X Y Z

Filtrovat:

ID stanice:
a/nebo
Název místa (fulltext):
 
Místo (ID)Naposledy načteno 
Iasi (LRIA) 05.03.2021 11:00 UTC Zobrazit METAR
LRIA 051100Z 20006KT CAVOK 13/01 Q1011
Ibiza (LEIB) 05.03.2021 11:00 UTC Zobrazit METAR
LEIB 051100Z 08008KT 050V110 9999 FEW018 15/11 Q1018 NOSIG
Innsbruck (LOWI) 05.03.2021 10:50 UTC Zobrazit METAR
LOWI 051050Z 08004KT 030V130 9999 -DZRA FEW007 SCT015 BKN035 07/04 Q1018 NOSIG
Iraklion (LGIR) 05.03.2021 10:50 UTC Zobrazit METAR
LGIR 051050Z 01005KT CAVOK 17/06 Q1021 NOSIG
Isafjordur (BIIS) 05.03.2021 11:00 UTC Zobrazit METAR
BIIS 051100Z 22008KT 9999 BKN035 06/00 Q1022
Isla de Pascua (SCIP) 05.03.2021 11:00 UTC Zobrazit METAR
SCIP 051100Z 12003KT 9999 BKN021 22/19 Q1014 NOSIG
Islamabad (OPRN) 28.12.2019 11:00 UTC Zobrazit METAR
OPRN 281100Z 05004KT 1400 BR SCT100 11/08 Q1016 BECMG 1500 BR
Istanbul (LTBA) 05.03.2021 10:50 UTC Zobrazit METAR
LTBA 051050Z 25008KT CAVOK 13/04 Q1018 NOSIG
Ivano-Frankivs'k (UKLI) Zatím nenačteno  
Reklama

Reklama


Počasí na Váš email

Emaily jsou bez reklamy a bez spamu



Odhlásit newsletter



Další české internetové stránky (nejen) o počasí najdete v katalogu TOPlist - weby o počasí nebo vyhledejte na internetu, co jste tu na 🌞 Slunečnu ⛅ zatím nenašli:
⭐ Přidat Slunečno.cz do oblíbených | 🏠 Nastavit Slunečno.cz jako HOMEPAGE

⬆️ Posunout stránku nahoru ⬆️
Reklama